createdAt,value
2022-08-27T00:01:16.395Z,73.13
2022-08-27T00:03:45.086Z,73.08
2022-08-27T00:06:14.703Z,73.10
2022-08-27T00:08:45.651Z,72.70
2022-08-27T00:11:13.188Z,72.83
2022-08-27T00:13:40.191Z,72.89
2022-08-27T00:16:09.960Z,73.28
2022-08-27T00:18:38.483Z,72.92
2022-08-27T00:21:05.068Z,72.69
2022-08-27T00:23:34.542Z,73.11
2022-08-27T00:26:01.415Z,73.15
2022-08-27T00:28:29.894Z,73.20
2022-08-27T00:30:56.874Z,73.15
2022-08-27T00:33:24.511Z,73.05
2022-08-27T00:35:51.621Z,73.46
2022-08-27T00:38:19.400Z,73.39
2022-08-27T00:40:46.772Z,73.13
2022-08-27T00:43:13.815Z,73.03
2022-08-27T00:45:45.133Z,73.06
2022-08-27T00:48:15.983Z,73.05
2022-08-27T00:50:52.637Z,72.99
2022-08-27T00:53:23.159Z,73.47
2022-08-27T00:55:55.080Z,73.19
2022-08-27T00:58:33.886Z,73.43
2022-08-27T01:01:01.985Z,73.65
2022-08-27T01:03:28.606Z,73.47
2022-08-27T01:05:59.084Z,73.32
2022-08-27T01:08:29.386Z,73.62
2022-08-27T01:10:58.414Z,73.79
2022-08-27T01:13:58.711Z,73.77
2022-08-27T01:16:27.012Z,73.64
2022-08-27T01:18:55.838Z,73.60
2022-08-27T01:21:32.879Z,73.80
2022-08-27T01:24:21.816Z,73.82
2022-08-27T01:26:49.377Z,73.92
2022-08-27T01:29:17.480Z,73.78
2022-08-27T01:31:44.265Z,73.60
2022-08-27T01:34:10.882Z,73.51
2022-08-27T01:36:37.415Z,73.75
2022-08-27T01:39:04.171Z,73.64
2022-08-27T01:41:31.974Z,73.91
2022-08-27T01:43:58.637Z,73.52
2022-08-27T01:46:27.780Z,73.51
2022-08-27T01:48:55.273Z,73.85
2022-08-27T01:51:22.338Z,73.97
2022-08-27T01:53:48.961Z,73.91
2022-08-27T01:56:15.596Z,73.91
2022-08-27T01:58:43.653Z,73.59
2022-08-27T02:01:14.386Z,73.50
2022-08-27T02:03:41.307Z,73.82
2022-08-27T02:06:10.717Z,74.14
2022-08-27T02:08:37.776Z,73.69
2022-08-27T02:11:05.124Z,73.90
2022-08-27T02:13:31.786Z,74.29
2022-08-27T02:15:58.407Z,74.16
2022-08-27T02:18:25.056Z,73.95
2022-08-27T02:20:51.712Z,74.01
2022-08-27T02:23:18.713Z,73.94
2022-08-27T02:25:48.519Z,73.92
2022-08-27T02:28:15.192Z,73.48
2022-08-27T02:30:41.773Z,73.80
2022-08-27T02:33:10.473Z,73.61
2022-08-27T02:35:43.072Z,73.89
2022-08-27T02:38:10.820Z,73.70
2022-08-27T02:40:37.679Z,73.52
2022-08-27T02:43:05.014Z,73.58
2022-08-27T02:45:31.665Z,73.78
2022-08-27T02:47:58.241Z,73.62
2022-08-27T02:50:27.430Z,74.05
2022-08-27T02:52:54.779Z,74.17
2022-08-27T02:55:22.526Z,74.11
2022-08-27T02:57:49.369Z,74.03
2022-08-27T03:00:19.010Z,74.35
2022-08-27T03:02:45.670Z,73.93
2022-08-27T03:05:13.204Z,74.13
2022-08-27T03:07:40.258Z,74.34
2022-08-27T03:10:07.828Z,74.47
2022-08-27T03:12:36.320Z,74.34
2022-08-27T03:15:08.276Z,74.41
2022-08-27T03:17:53.517Z,74.58
2022-08-27T03:20:20.177Z,74.55
2022-08-27T03:22:46.977Z,74.99
2022-08-27T03:25:16.077Z,74.60
2022-08-27T03:27:42.756Z,74.46
2022-08-27T03:30:19.339Z,74.43
2022-08-27T03:32:46.561Z,74.51
2022-08-27T03:35:14.437Z,74.49
2022-08-27T03:37:41.237Z,74.98
2022-08-27T03:40:08.322Z,74.72
2022-08-27T03:42:35.395Z,74.62
2022-08-27T03:45:02.013Z,75.00
2022-08-27T03:47:28.562Z,74.86
2022-08-27T03:49:55.357Z,74.73
2022-08-27T03:52:22.346Z,74.45
2022-08-27T03:54:48.869Z,74.43
2022-08-27T03:57:15.477Z,74.29
2022-08-27T03:59:41.993Z,74.31
2022-08-27T04:02:08.681Z,74.18
2022-08-27T04:04:35.593Z,73.98
2022-08-27T04:07:02.142Z,74.14
2022-08-27T04:09:28.646Z,74.53
2022-08-27T04:11:55.383Z,74.50
2022-08-27T04:14:26.376Z,74.35
2022-08-27T04:16:54.961Z,74.36
2022-08-27T04:19:26.974Z,74.45
2022-08-27T04:21:54.012Z,74.54
2022-08-27T04:24:20.482Z,74.73
2022-08-27T04:26:47.754Z,74.45
2022-08-27T04:29:14.256Z,74.03
2022-08-27T04:31:40.815Z,74.45
2022-08-27T04:34:07.753Z,74.38
2022-08-27T04:36:34.373Z,74.60
2022-08-27T04:39:01.232Z,74.42
2022-08-27T04:41:28.969Z,74.61
2022-08-27T04:43:57.724Z,74.45
2022-08-27T04:46:29.782Z,74.14
2022-08-27T04:48:57.888Z,74.16
2022-08-27T04:51:25.513Z,74.20
2022-08-27T04:53:52.629Z,74.06
2022-08-27T04:56:22.310Z,74.18
2022-08-27T04:58:50.598Z,74.03
2022-08-27T05:01:19.615Z,73.87
2022-08-27T05:03:46.449Z,73.88
2022-08-27T05:06:13.314Z,74.04
2022-08-27T05:08:41.068Z,74.00
2022-08-27T05:11:10.917Z,73.73
2022-08-27T05:13:38.080Z,73.82
2022-08-27T05:16:07.692Z,73.44
2022-08-27T05:18:42.263Z,73.49
2022-08-27T05:21:27.336Z,73.47
2022-08-27T05:23:56.492Z,73.47
2022-08-27T05:26:23.364Z,73.37
2022-08-27T05:28:50.192Z,73.06
2022-08-27T05:31:17.882Z,73.15
2022-08-27T05:33:44.514Z,72.90
2022-08-27T05:36:17.618Z,73.47
2022-08-27T05:38:44.470Z,73.46
2022-08-27T05:41:14.910Z,73.19
2022-08-27T05:43:45.373Z,73.14
2022-08-27T05:46:16.961Z,73.26
2022-08-27T05:48:44.776Z,72.94
2022-08-27T05:51:25.648Z,72.64
2022-08-27T05:54:04.549Z,72.66
2022-08-27T05:56:36.156Z,72.36
2022-08-27T05:59:21.362Z,71.90
2022-08-27T06:01:50.153Z,72.44
2022-08-27T06:04:18.238Z,72.81
2022-08-27T06:06:46.049Z,72.97
2022-08-27T06:09:16.647Z,72.94
2022-08-27T06:11:43.545Z,72.58
2022-08-27T06:14:10.377Z,72.98
2022-08-27T06:16:38.250Z,72.50
2022-08-27T06:19:05.565Z,72.22
2022-08-27T06:21:32.364Z,71.76
2022-08-27T06:23:58.908Z,71.05
2022-08-27T06:26:26.800Z,71.34
2022-08-27T06:28:54.160Z,72.00
2022-08-27T06:31:26.607Z,71.66
2022-08-27T06:33:58.065Z,71.28
2022-08-27T06:36:27.564Z,70.96
2022-08-27T06:38:54.568Z,70.34
2022-08-27T06:41:24.115Z,70.61
2022-08-27T06:43:51.871Z,70.94
2022-08-27T06:46:25.166Z,71.30
2022-08-27T06:48:56.451Z,71.28
2022-08-27T06:51:26.281Z,71.24
2022-08-27T06:53:55.207Z,70.93
2022-08-27T06:56:22.500Z,71.22
2022-08-27T06:58:53.390Z,71.01
2022-08-27T07:01:24.204Z,70.62
2022-08-27T07:03:51.009Z,70.65
2022-08-27T07:06:18.127Z,70.82
2022-08-27T07:08:52.998Z,70.46
2022-08-27T07:11:20.967Z,70.25
2022-08-27T07:13:48.521Z,70.16
2022-08-27T07:16:17.799Z,70.25
2022-08-27T07:18:45.411Z,69.95
2022-08-27T07:21:12.627Z,69.65
2022-08-27T07:23:39.883Z,69.99
2022-08-27T07:26:10.949Z,69.53
2022-08-27T07:28:39.159Z,68.95
2022-08-27T07:31:09.050Z,68.94
2022-08-27T07:33:37.233Z,68.81
2022-08-27T07:36:06.220Z,68.94
2022-08-27T07:38:33.352Z,69.43
2022-08-27T07:41:04.913Z,69.46
2022-08-27T07:43:50.294Z,68.77
2022-08-27T07:46:24.198Z,68.71
2022-08-27T07:48:51.224Z,68.72
2022-08-27T07:51:20.652Z,68.89
2022-08-27T07:53:47.665Z,68.37
2022-08-27T07:56:14.213Z,68.42
2022-08-27T07:58:41.409Z,68.68
2022-08-27T08:01:08.044Z,68.09
2022-08-27T08:03:35.096Z,67.07
2022-08-27T08:06:08.003Z,67.33
2022-08-27T08:08:36.240Z,67.24
2022-08-27T08:11:06.288Z,67.28
2022-08-27T08:13:32.943Z,67.05
2022-08-27T08:15:59.472Z,67.24
2022-08-27T08:18:27.365Z,67.28
2022-08-27T08:20:58.964Z,67.39
2022-08-27T08:23:26.286Z,66.61
2022-08-27T08:25:52.849Z,66.59
2022-08-27T08:28:19.342Z,66.40
2022-08-27T08:30:47.687Z,66.62
2022-08-27T08:33:14.264Z,66.57
2022-08-27T08:35:41.340Z,66.42
2022-08-27T08:38:09.082Z,66.56
2022-08-27T08:40:40.987Z,66.06
2022-08-27T08:43:18.425Z,65.86
2022-08-27T08:45:45.887Z,65.39
2022-08-27T08:48:17.854Z,65.76
2022-08-27T08:51:24.153Z,64.94
2022-08-27T08:54:07.007Z,64.49
2022-08-27T08:56:55.088Z,63.72
2022-08-27T08:59:30.028Z,63.72
2022-08-27T09:01:58.661Z,63.30
2022-08-27T09:04:27.095Z,63.23
2022-08-27T09:07:11.448Z,63.15
2022-08-27T09:10:14.404Z,63.08
2022-08-27T09:12:41.485Z,62.61
2022-08-27T09:15:12.472Z,62.99
2022-08-27T09:17:41.831Z,62.51
2022-08-27T09:20:13.230Z,62.46
2022-08-27T09:23:22.210Z,62.00
2022-08-27T09:25:48.796Z,62.25
2022-08-27T09:28:39.367Z,62.31
2022-08-27T09:31:09.730Z,61.90
2022-08-27T09:33:46.066Z,61.88
2022-08-27T09:36:24.159Z,61.85
2022-08-27T09:38:58.573Z,61.71
2022-08-27T09:44:09.368Z,61.09
2022-08-27T09:46:36.250Z,61.02
2022-08-27T09:49:14.318Z,60.80
2022-08-27T09:51:44.115Z,60.59
2022-08-27T09:54:11.881Z,60.26
2022-08-27T09:56:41.876Z,60.11
2022-08-27T09:59:08.310Z,60.18
2022-08-27T10:01:49.965Z,60.32
2022-08-27T10:04:24.084Z,60.07
2022-08-27T10:06:51.678Z,59.91
2022-08-27T10:09:35.489Z,58.95
2022-08-27T10:12:10.513Z,58.88
2022-08-27T10:14:58.836Z,59.10
2022-08-27T10:17:36.412Z,58.56
2022-08-27T10:20:30.301Z,58.25
2022-08-27T10:23:10.546Z,58.36
2022-08-27T10:25:42.500Z,57.97
2022-08-27T10:28:40.291Z,57.65
2022-08-27T10:31:25.160Z,57.29
2022-08-27T10:34:01.274Z,57.03
2022-08-27T10:36:57.150Z,56.88
2022-08-27T10:39:45.440Z,56.49
2022-08-27T10:42:26.204Z,56.35
2022-08-27T10:45:11.546Z,55.66
2022-08-27T10:48:25.603Z,55.43
2022-08-27T10:51:08.635Z,54.70
2022-08-27T10:53:46.228Z,54.97
2022-08-27T10:56:30.687Z,54.42
2022-08-27T10:59:21.517Z,53.70
2022-08-27T11:02:20.414Z,53.98
2022-08-27T11:04:51.272Z,54.10
2022-08-27T11:07:24.564Z,54.12
2022-08-27T11:09:58.528Z,54.65
2022-08-27T11:12:38.916Z,54.49
2022-08-27T11:15:13.025Z,55.01
2022-08-27T11:18:04.688Z,55.16
2022-08-27T11:20:40.760Z,55.22
2022-08-27T11:23:12.229Z,55.65
2022-08-27T11:25:50.483Z,55.44
2022-08-27T11:28:21.314Z,55.96
2022-08-27T11:31:11.481Z,55.90
2022-08-27T11:33:47.362Z,55.97
2022-08-27T11:36:23.175Z,56.10
2022-08-27T11:39:04.896Z,55.87
2022-08-27T11:41:45.539Z,55.49
2022-08-27T11:44:14.950Z,55.65
2022-08-27T11:46:48.511Z,55.49
2022-08-27T11:49:40.993Z,55.42
2022-08-27T11:52:09.095Z,54.92
2022-08-27T11:55:10.994Z,55.18
2022-08-27T11:57:38.300Z,54.90
2022-08-27T12:00:20.194Z,54.93
2022-08-27T12:03:05.453Z,54.18
2022-08-27T12:05:37.943Z,53.59
2022-08-27T12:08:22.956Z,54.19
2022-08-27T12:11:34.437Z,53.19
2022-08-27T12:14:14.592Z,52.65
2022-08-27T12:16:57.664Z,52.87
2022-08-27T12:19:59.163Z,51.87
2022-08-27T12:23:13.417Z,52.01
2022-08-27T12:25:39.978Z,51.94
2022-08-27T12:28:09.197Z,51.03
2022-08-27T12:30:39.135Z,50.77
2022-08-27T12:33:27.068Z,50.62
2022-08-27T12:35:56.345Z,50.44
2022-08-27T12:38:34.894Z,49.40
2022-08-27T12:41:09.193Z,50.54
2022-08-27T12:43:38.332Z,50.80
2022-08-27T12:46:11.005Z,50.55
2022-08-27T12:48:42.370Z,50.11
2022-08-27T12:51:14.041Z,49.98
2022-08-27T12:54:08.341Z,49.84
2022-08-27T12:57:14.009Z,49.96
2022-08-27T13:00:12.908Z,49.74
2022-08-27T13:02:49.607Z,49.37
2022-08-27T13:05:22.621Z,49.21
2022-08-27T13:07:51.183Z,48.55
2022-08-27T13:10:20.548Z,48.41
2022-08-27T13:12:48.696Z,47.98
2022-08-27T13:15:19.276Z,47.43
2022-08-27T13:17:47.368Z,47.69
2022-08-27T13:20:14.440Z,47.45
2022-08-27T13:22:43.466Z,46.85
2022-08-27T13:25:20.988Z,47.52
2022-08-27T13:27:56.994Z,47.45
2022-08-27T13:30:35.702Z,47.42
2022-08-27T13:33:05.083Z,47.48
2022-08-27T13:35:32.494Z,47.51
2022-08-27T13:38:01.109Z,47.48
2022-08-27T13:40:37.016Z,47.00
2022-08-27T13:43:10.473Z,47.17
2022-08-27T13:45:41.841Z,46.32
2022-08-27T13:48:12.531Z,46.15
2022-08-27T13:50:49.387Z,46.00
2022-08-27T13:53:39.946Z,45.56
2022-08-27T13:56:07.276Z,45.47
2022-08-27T13:58:35.478Z,45.42
2022-08-27T14:01:14.938Z,44.64
2022-08-27T14:03:50.859Z,44.52
2022-08-27T14:06:45.219Z,44.13
2022-08-27T14:09:28.587Z,44.11
2022-08-27T14:12:03.394Z,43.80
2022-08-27T14:14:35.841Z,43.92
2022-08-27T14:17:04.509Z,44.48
2022-08-27T14:19:36.937Z,44.68
2022-08-27T14:22:04.353Z,44.96
2022-08-27T14:24:30.919Z,45.05
2022-08-27T14:27:07.758Z,45.45
2022-08-27T14:29:34.338Z,45.25
2022-08-27T14:32:00.814Z,44.93
2022-08-27T14:34:27.373Z,44.91
2022-08-27T14:36:54.981Z,44.59
2022-08-27T14:39:21.979Z,45.21
2022-08-27T14:41:53.108Z,45.16
2022-08-27T14:44:21.200Z,44.95
2022-08-27T14:46:47.857Z,45.62
2022-08-27T14:49:22.024Z,45.49
2022-08-27T14:51:49.055Z,45.21
2022-08-27T14:54:15.606Z,45.29
2022-08-27T14:56:42.108Z,45.72
2022-08-27T14:59:08.695Z,45.67
2022-08-27T15:01:38.058Z,45.34
2022-08-27T15:04:06.248Z,44.95
2022-08-27T15:06:32.811Z,44.83
2022-08-27T15:09:00.360Z,44.39
2022-08-27T15:11:31.408Z,44.91
2022-08-27T15:14:00.614Z,45.24
2022-08-27T15:16:33.180Z,45.09
2022-08-27T15:19:01.566Z,45.13
2022-08-27T15:21:30.438Z,45.05
2022-08-27T15:24:00.647Z,44.88
2022-08-27T15:26:28.136Z,44.85
2022-08-27T15:28:55.101Z,44.73
2022-08-27T15:31:21.802Z,44.88
2022-08-27T15:33:48.421Z,45.36
2022-08-27T15:36:15.088Z,45.68
2022-08-27T15:38:41.628Z,46.10
2022-08-27T15:41:10.232Z,46.53
2022-08-27T15:43:37.886Z,46.21
2022-08-27T15:46:05.397Z,46.30
2022-08-27T15:48:32.072Z,45.87
2022-08-27T15:51:04.717Z,45.86
2022-08-27T15:53:31.315Z,45.52
2022-08-27T15:55:58.072Z,45.62
2022-08-27T15:58:24.592Z,45.25
2022-08-27T16:01:01.587Z,45.43
2022-08-27T16:03:35.442Z,45.16
2022-08-27T16:06:05.058Z,44.93
2022-08-27T16:08:32.435Z,45.09
2022-08-27T16:11:03.858Z,44.66
2022-08-27T16:13:31.011Z,44.95
2022-08-27T16:15:57.919Z,44.62
2022-08-27T16:18:31.613Z,44.60
2022-08-27T16:21:01.065Z,45.00
2022-08-27T16:23:28.756Z,44.96
2022-08-27T16:25:56.079Z,45.00
2022-08-27T16:28:24.039Z,45.31
2022-08-27T16:30:52.849Z,45.87
2022-08-27T16:33:20.805Z,46.13
2022-08-27T16:35:48.295Z,46.36
2022-08-27T16:38:15.156Z,46.57
2022-08-27T16:40:44.819Z,46.57
2022-08-27T16:43:14.731Z,47.04
2022-08-27T16:45:41.952Z,47.15
2022-08-27T16:48:27.073Z,47.89
2022-08-27T16:50:53.587Z,48.27
2022-08-27T16:53:22.084Z,48.31
2022-08-27T16:55:50.824Z,48.20
2022-08-27T16:58:24.193Z,48.67
2022-08-27T17:00:56.747Z,48.67
2022-08-27T17:03:25.096Z,49.17
2022-08-27T17:05:52.251Z,49.03
2022-08-27T17:08:21.736Z,49.26
2022-08-27T17:10:55.363Z,49.67
2022-08-27T17:13:28.354Z,49.76
2022-08-27T17:15:56.114Z,50.18
2022-08-27T17:18:27.197Z,50.01
2022-08-27T17:20:55.359Z,50.39
2022-08-27T17:23:29.501Z,50.06
2022-08-27T17:25:56.236Z,50.38
2022-08-27T17:28:22.734Z,50.53
2022-08-27T17:30:49.286Z,50.46
2022-08-27T17:33:38.910Z,50.63
2022-08-27T17:36:07.523Z,50.88
2022-08-27T17:38:37.433Z,50.72
2022-08-27T17:41:16.212Z,50.89
2022-08-27T17:43:42.832Z,51.38
2022-08-27T17:46:09.654Z,51.27
2022-08-27T17:48:36.261Z,51.96
2022-08-27T17:51:03.923Z,52.48
2022-08-27T17:53:30.530Z,52.77
2022-08-27T17:55:57.017Z,53.10
2022-08-27T17:58:23.515Z,53.37
2022-08-27T18:00:50.036Z,54.03
2022-08-27T18:03:20.014Z,53.72
2022-08-27T18:05:48.031Z,54.38
2022-08-27T18:08:14.945Z,54.78
2022-08-27T18:10:42.646Z,55.04
2022-08-27T18:13:10.456Z,55.37
2022-08-27T18:15:41.098Z,55.76
2022-08-27T18:18:09.915Z,56.21
2022-08-27T18:20:36.992Z,56.41
2022-08-27T18:23:08.319Z,56.90
2022-08-27T18:25:37.572Z,57.16
2022-08-27T18:28:07.642Z,57.28
2022-08-27T18:30:34.935Z,57.57
2022-08-27T18:33:02.507Z,57.95
2022-08-27T18:35:31.851Z,58.01
2022-08-27T18:37:58.849Z,58.24
2022-08-27T18:40:30.450Z,58.36
2022-08-27T18:42:57.742Z,58.40
2022-08-27T18:45:28.643Z,58.95
2022-08-27T18:47:59.126Z,59.00
2022-08-27T18:50:26.621Z,59.17
2022-08-27T18:52:55.013Z,59.82
2022-08-27T18:55:25.648Z,59.85
2022-08-27T18:57:52.519Z,59.93
2022-08-27T19:00:20.189Z,60.07
2022-08-27T19:02:52.401Z,60.28
2022-08-27T19:05:25.103Z,60.68
2022-08-27T19:07:51.929Z,60.62
2022-08-27T19:10:19.254Z,60.83
2022-08-27T19:12:47.356Z,60.96
2022-08-27T19:15:14.234Z,60.91
2022-08-27T19:17:43.560Z,61.17
2022-08-27T19:20:11.466Z,61.21
2022-08-27T19:22:38.339Z,60.81
2022-08-27T19:25:07.271Z,60.86
2022-08-27T19:27:34.430Z,61.02
2022-08-27T19:30:00.897Z,61.02
2022-08-27T19:32:27.447Z,61.54
2022-08-27T19:34:53.967Z,61.47
2022-08-27T19:37:25.349Z,61.31
2022-08-27T19:39:52.596Z,61.44
2022-08-27T19:42:19.184Z,61.43
2022-08-27T19:44:45.866Z,61.75
2022-08-27T19:47:14.614Z,61.66
2022-08-27T19:49:41.913Z,61.43
2022-08-27T19:52:08.766Z,61.59
2022-08-27T19:54:43.146Z,61.40
2022-08-27T19:57:18.895Z,61.40
2022-08-27T19:59:45.646Z,61.75
2022-08-27T20:02:12.565Z,61.79
2022-08-27T20:04:56.022Z,61.94
2022-08-27T20:07:26.537Z,62.27
2022-08-27T20:09:53.054Z,62.16
2022-08-27T20:12:21.738Z,61.85
2022-08-27T20:14:51.201Z,61.65
2022-08-27T20:17:18.603Z,61.74
2022-08-27T20:19:45.380Z,62.27
2022-08-27T20:22:13.120Z,62.00
2022-08-27T20:24:39.682Z,62.05
2022-08-27T20:27:06.223Z,62.05
2022-08-27T20:29:33.172Z,62.10
2022-08-27T20:32:00.215Z,62.14
2022-08-27T20:34:29.396Z,62.00
2022-08-27T20:36:56.083Z,62.33
2022-08-27T20:39:22.594Z,62.18
2022-08-27T20:41:49.090Z,62.16
2022-08-27T20:44:16.997Z,62.27
2022-08-27T20:46:45.568Z,62.23
2022-08-27T20:49:17.513Z,62.06
2022-08-27T20:51:51.139Z,62.24
2022-08-27T20:54:30.212Z,62.37
2022-08-27T20:56:58.799Z,62.34
2022-08-27T20:59:44.311Z,62.02
2022-08-27T21:02:12.716Z,62.28
2022-08-27T21:04:48.363Z,62.25
2022-08-27T21:07:16.842Z,62.65
2022-08-27T21:09:55.502Z,62.40
2022-08-27T21:12:25.873Z,62.60
2022-08-27T21:14:55.667Z,62.16
2022-08-27T21:17:24.445Z,62.34
2022-08-27T21:19:51.071Z,62.31
2022-08-27T21:22:18.068Z,62.42
2022-08-27T21:24:47.086Z,62.52
2022-08-27T21:27:17.885Z,62.48
2022-08-27T21:29:45.045Z,62.41
2022-08-27T21:32:12.081Z,62.30
2022-08-27T21:34:38.638Z,62.67
2022-08-27T21:37:05.182Z,62.93
2022-08-27T21:39:33.110Z,62.98
2022-08-27T21:42:01.488Z,62.68
2022-08-27T21:44:29.787Z,62.70
2022-08-27T21:46:56.780Z,62.71
2022-08-27T21:49:23.596Z,62.58
2022-08-27T21:51:50.138Z,62.65
2022-08-27T21:54:16.671Z,62.00
2022-08-27T21:56:43.266Z,62.23
2022-08-27T21:59:10.055Z,62.43
2022-08-27T22:01:36.696Z,62.45
2022-08-27T22:04:03.670Z,62.63
2022-08-27T22:06:30.287Z,62.40
2022-08-27T22:08:56.876Z,62.75
2022-08-27T22:11:24.474Z,63.42
2022-08-27T22:13:52.413Z,62.87
2022-08-27T22:16:19.405Z,62.48
2022-08-27T22:18:46.063Z,62.88
2022-08-27T22:21:13.394Z,63.15
2022-08-27T22:23:42.243Z,63.07
2022-08-27T22:26:12.044Z,63.47
2022-08-27T22:28:38.652Z,62.79
2022-08-27T22:31:07.288Z,63.07
2022-08-27T22:33:34.109Z,63.33
2022-08-27T22:36:00.640Z,63.62
2022-08-27T22:38:27.182Z,63.75
2022-08-27T22:40:53.696Z,64.06
2022-08-27T22:43:20.334Z,64.06
2022-08-27T22:45:46.865Z,64.27
2022-08-27T22:48:13.676Z,64.30
2022-08-27T22:50:40.614Z,64.03
2022-08-27T22:53:07.480Z,64.15
2022-08-27T22:55:34.505Z,63.96
2022-08-27T22:58:02.073Z,64.12
2022-08-27T23:00:35.328Z,64.34
2022-08-27T23:03:05.381Z,64.56
2022-08-27T23:05:41.896Z,64.75
2022-08-27T23:08:11.045Z,64.60
2022-08-27T23:10:38.508Z,64.89
2022-08-27T23:13:06.859Z,64.82
2022-08-27T23:15:33.526Z,65.15
2022-08-27T23:18:01.441Z,65.08
2022-08-27T23:20:29.529Z,65.42
2022-08-27T23:22:56.945Z,65.37
2022-08-27T23:25:44.037Z,65.84
2022-08-27T23:28:14.867Z,66.24
2022-08-27T23:30:42.910Z,66.30
2022-08-27T23:33:09.759Z,66.18
2022-08-27T23:35:36.442Z,66.50
2022-08-27T23:38:03.715Z,66.66
2022-08-27T23:40:30.393Z,66.64
2022-08-27T23:42:57.040Z,66.90
2022-08-27T23:45:25.863Z,67.15
2022-08-27T23:47:52.585Z,66.88
2022-08-27T23:50:20.360Z,67.02
2022-08-27T23:52:49.707Z,67.22
2022-08-27T23:55:16.276Z,66.88
2022-08-27T23:57:43.407Z,66.66
